createdAt,value
2022-08-28T00:00:28.102Z,5.93
2022-08-28T00:02:58.408Z,5.00
2022-08-28T00:05:28.645Z,5.57
2022-08-28T00:07:57.405Z,5.47
2022-08-28T00:10:26.299Z,4.80
2022-08-28T00:12:55.812Z,5.87
2022-08-28T00:15:27.704Z,5.70
2022-08-28T00:17:55.864Z,5.67
2022-08-28T00:20:26.798Z,5.47
2022-08-28T00:22:55.703Z,5.20
2022-08-28T00:25:25.493Z,5.63
2022-08-28T00:27:52.970Z,6.10
2022-08-28T00:30:23.360Z,6.03
2022-08-28T00:32:51.769Z,6.13
2022-08-28T00:35:20.244Z,6.30
2022-08-28T00:37:50.570Z,6.87
2022-08-28T00:40:28.513Z,6.53
2022-08-28T00:42:57.580Z,6.80
2022-08-28T00:45:26.704Z,6.87
2022-08-28T00:47:54.865Z,6.33
2022-08-28T00:50:25.966Z,7.17
2022-08-28T00:52:58.183Z,6.50
2022-08-28T00:55:28.164Z,6.93
2022-08-28T00:57:59.093Z,6.83
2022-08-28T01:00:31.147Z,7.13
2022-08-28T01:02:59.631Z,7.57
2022-08-28T01:05:28.871Z,6.93
2022-08-28T01:07:59.792Z,8.10
2022-08-28T01:10:30.514Z,7.70
2022-08-28T01:12:59.009Z,7.97
2022-08-28T01:15:29.043Z,8.13
2022-08-28T01:18:02.569Z,7.77
2022-08-28T01:20:34.455Z,8.20
2022-08-28T01:23:09.883Z,7.90
2022-08-28T01:25:40.316Z,8.00
2022-08-28T01:28:12.602Z,8.20
2022-08-28T01:30:43.015Z,8.20
2022-08-28T01:33:12.010Z,7.23
2022-08-28T01:35:42.672Z,7.80
2022-08-28T01:38:11.138Z,8.17
2022-08-28T01:40:43.089Z,7.90
2022-08-28T01:43:13.578Z,7.63
2022-08-28T01:45:42.426Z,8.27
2022-08-28T01:48:10.491Z,8.67
2022-08-28T01:50:39.485Z,8.10
2022-08-28T01:53:08.056Z,7.97
2022-08-28T01:55:41.877Z,8.03
2022-08-28T01:58:10.551Z,8.40
2022-08-28T02:00:39.697Z,8.30
2022-08-28T02:03:07.923Z,8.00
2022-08-28T02:05:36.389Z,8.13
2022-08-28T02:08:06.292Z,8.47
2022-08-28T02:10:36.945Z,8.60
2022-08-28T02:13:07.353Z,8.07
2022-08-28T02:15:37.183Z,7.93
2022-08-28T02:18:06.296Z,7.70
2022-08-28T02:20:35.315Z,8.70
2022-08-28T02:23:03.411Z,7.23
2022-08-28T02:25:31.633Z,7.50
2022-08-28T02:27:59.941Z,7.73
2022-08-28T02:30:29.748Z,7.67
2022-08-28T02:32:57.879Z,8.80
2022-08-28T02:35:25.930Z,7.40
2022-08-28T02:37:54.569Z,8.27
2022-08-28T02:40:24.772Z,7.50
2022-08-28T02:42:53.165Z,7.53
2022-08-28T02:45:21.549Z,7.47
2022-08-28T02:47:52.943Z,7.97
2022-08-28T02:50:21.865Z,7.63
2022-08-28T02:52:49.974Z,7.70
2022-08-28T02:55:19.386Z,7.33
2022-08-28T02:57:48.816Z,7.90
2022-08-28T03:00:19.903Z,7.10
2022-08-28T03:02:48.535Z,7.70
2022-08-28T03:05:21.435Z,8.00
2022-08-28T03:07:50.202Z,8.00
2022-08-28T03:10:18.719Z,7.63
2022-08-28T03:12:46.872Z,7.40
2022-08-28T03:15:14.913Z,8.10
2022-08-28T03:17:42.953Z,7.67
2022-08-28T03:20:13.145Z,7.47
2022-08-28T03:23:00.310Z,7.40
2022-08-28T03:25:28.475Z,7.87
2022-08-28T03:27:57.118Z,8.50
2022-08-28T03:30:25.645Z,7.70
2022-08-28T03:32:54.010Z,7.47
2022-08-28T03:35:22.229Z,7.90
2022-08-28T03:37:51.761Z,7.90
2022-08-28T03:40:20.491Z,7.63
2022-08-28T03:42:53.230Z,8.10
2022-08-28T03:45:21.812Z,7.90
2022-08-28T03:47:50.844Z,7.10
2022-08-28T03:50:19.892Z,8.17
2022-08-28T03:52:48.186Z,7.83
2022-08-28T03:55:18.882Z,7.97
2022-08-28T03:57:46.960Z,8.07
2022-08-28T04:00:16.069Z,7.97
2022-08-28T04:02:46.226Z,7.70
2022-08-28T04:05:14.784Z,8.43
2022-08-28T04:07:42.820Z,8.23
2022-08-28T04:10:12.195Z,9.57
2022-08-28T04:12:41.566Z,8.00
2022-08-28T04:15:11.231Z,7.70
2022-08-28T04:17:39.990Z,9.00
2022-08-28T04:20:10.952Z,9.30
2022-08-28T04:22:39.890Z,8.93
2022-08-28T04:25:09.061Z,7.77
2022-08-28T04:27:37.322Z,7.97
2022-08-28T04:30:10.009Z,7.80
2022-08-28T04:32:39.352Z,9.20
2022-08-28T04:35:09.660Z,8.50
2022-08-28T04:37:39.164Z,8.30
2022-08-28T04:40:10.805Z,9.00
2022-08-28T04:42:40.036Z,8.63
2022-08-28T04:45:10.690Z,8.50
2022-08-28T04:47:39.552Z,8.30
2022-08-28T04:50:09.005Z,8.40
2022-08-28T04:52:37.122Z,8.93
2022-08-28T04:55:06.228Z,9.60
2022-08-28T04:57:36.402Z,7.43
2022-08-28T05:00:06.771Z,8.10
2022-08-28T05:02:36.312Z,9.43
2022-08-28T05:05:05.187Z,9.07
2022-08-28T05:07:33.305Z,8.20
2022-08-28T05:10:01.483Z,9.13
2022-08-28T05:12:29.502Z,8.77
2022-08-28T05:14:57.628Z,9.47
2022-08-28T05:17:25.728Z,9.23
2022-08-28T05:19:55.629Z,9.13
2022-08-28T05:22:23.880Z,8.90
2022-08-28T05:29:17.836Z,8.60
2022-08-28T05:31:46.216Z,9.13
2022-08-28T05:34:15.245Z,8.60
2022-08-28T05:36:44.679Z,9.60
2022-08-28T05:39:13.344Z,8.67
2022-08-28T05:41:43.194Z,8.87
2022-08-28T05:44:14.208Z,8.30
2022-08-28T05:46:44.883Z,8.47
2022-08-28T05:49:13.560Z,9.20
2022-08-28T05:51:44.161Z,8.87
2022-08-28T05:54:12.825Z,9.00
2022-08-28T05:56:42.110Z,9.17
2022-08-28T05:59:10.826Z,8.47
2022-08-28T06:01:40.985Z,9.23
2022-08-28T06:04:11.660Z,9.00
2022-08-28T06:06:41.231Z,8.77
2022-08-28T06:09:12.601Z,8.80
2022-08-28T06:11:44.670Z,9.27
2022-08-28T06:14:16.583Z,8.97
2022-08-28T06:16:47.798Z,9.20
2022-08-28T06:19:17.514Z,9.07
2022-08-28T06:21:46.885Z,8.63
2022-08-28T06:24:16.316Z,9.30
2022-08-28T06:26:44.635Z,9.03
2022-08-28T06:29:15.710Z,9.47
2022-08-28T06:31:43.901Z,9.47
2022-08-28T06:34:12.241Z,9.07
2022-08-28T06:36:42.828Z,9.40
2022-08-28T06:39:12.957Z,8.50
2022-08-28T06:41:43.315Z,8.83
2022-08-28T06:44:12.487Z,9.23
2022-08-28T06:46:41.123Z,8.37
2022-08-28T06:49:09.621Z,7.83
2022-08-28T06:51:37.755Z,7.20
2022-08-28T06:54:06.512Z,8.07
2022-08-28T06:56:34.950Z,7.10
2022-08-28T06:59:05.110Z,7.67
2022-08-28T07:01:35.100Z,8.27
2022-08-28T07:04:05.917Z,7.00
2022-08-28T07:06:35.688Z,8.50
2022-08-28T07:09:05.287Z,10.50
2022-08-28T07:11:34.674Z,7.77
2022-08-28T07:14:04.945Z,7.83
2022-08-28T07:16:35.230Z,9.20
2022-08-28T07:19:05.094Z,8.30
2022-08-28T07:21:38.208Z,8.13
2022-08-28T07:24:07.936Z,8.83
2022-08-28T07:26:37.286Z,8.00
2022-08-28T07:29:10.944Z,8.50
2022-08-28T07:31:41.370Z,8.40
2022-08-28T07:34:10.911Z,8.43
2022-08-28T07:36:39.450Z,8.47
2022-08-28T07:39:08.741Z,7.97
2022-08-28T07:41:39.395Z,9.03
2022-08-28T07:44:27.861Z,8.80
2022-08-28T07:46:56.506Z,8.40
2022-08-28T07:49:25.006Z,9.13
2022-08-28T07:51:53.935Z,8.43
2022-08-28T07:54:22.718Z,8.53
2022-08-28T07:56:51.099Z,8.53
2022-08-28T07:59:20.572Z,8.60
2022-08-28T08:01:51.182Z,8.37
2022-08-28T08:04:20.347Z,8.30
2022-08-28T08:06:48.650Z,8.63
2022-08-28T08:09:19.167Z,9.03
2022-08-28T08:11:47.842Z,8.33
2022-08-28T08:14:17.923Z,9.00
2022-08-28T08:16:48.760Z,8.60
2022-08-28T08:19:17.288Z,7.73
2022-08-28T08:21:54.652Z,8.50
2022-08-28T08:24:42.882Z,7.97
2022-08-28T08:27:11.559Z,8.00
2022-08-28T08:29:40.297Z,8.00
2022-08-28T08:32:11.874Z,7.80
2022-08-28T08:34:42.230Z,8.90
2022-08-28T08:37:11.814Z,9.10
2022-08-28T08:39:41.638Z,7.13
2022-08-28T08:42:20.699Z,8.33
2022-08-28T08:44:49.367Z,8.13
2022-08-28T08:47:22.389Z,8.27
2022-08-28T08:49:54.258Z,8.17
2022-08-28T08:52:49.326Z,7.70
2022-08-28T08:55:27.133Z,8.00
2022-08-28T08:58:04.825Z,7.83
2022-08-28T09:00:34.928Z,9.17
2022-08-28T09:03:08.257Z,8.40
2022-08-28T09:05:51.107Z,7.97
2022-08-28T09:08:28.201Z,8.10
2022-08-28T09:11:05.658Z,7.97
2022-08-28T09:13:42.204Z,7.27
2022-08-28T09:16:18.445Z,8.20
2022-08-28T09:18:48.514Z,7.30
2022-08-28T09:21:29.249Z,7.43
2022-08-28T09:24:05.882Z,7.60
2022-08-28T09:26:35.913Z,7.50
2022-08-28T09:29:06.935Z,7.70
2022-08-28T09:31:37.313Z,9.40
2022-08-28T09:34:25.444Z,9.20
2022-08-28T09:36:54.492Z,8.30
2022-08-28T09:39:24.727Z,8.30
2022-08-28T09:42:34.030Z,8.07
2022-08-28T09:45:09.609Z,7.77
2022-08-28T09:47:49.626Z,7.50
2022-08-28T09:50:34.778Z,7.30
2022-08-28T09:53:18.765Z,7.83
2022-08-28T09:55:56.773Z,7.80
2022-08-28T09:58:31.182Z,7.27
2022-08-28T10:01:06.461Z,8.30
2022-08-28T10:03:37.999Z,7.70
2022-08-28T10:06:12.866Z,7.33
2022-08-28T10:08:59.596Z,7.10
2022-08-28T10:11:34.253Z,7.97
2022-08-28T10:14:11.240Z,8.60
2022-08-28T10:16:46.699Z,8.20
2022-08-28T10:19:27.486Z,8.53
2022-08-28T10:22:05.094Z,8.70
2022-08-28T10:24:49.478Z,8.60
2022-08-28T10:27:31.673Z,9.87
2022-08-28T10:30:12.445Z,8.70
2022-08-28T10:32:54.759Z,8.40
2022-08-28T10:35:25.806Z,9.07
2022-08-28T10:37:59.590Z,9.43
2022-08-28T10:40:30.001Z,7.50
2022-08-28T10:43:04.893Z,7.47
2022-08-28T10:45:34.935Z,8.30
2022-08-28T10:48:11.965Z,7.87
2022-08-28T10:50:44.668Z,8.13
2022-08-28T10:53:17.362Z,7.50
2022-08-28T10:55:54.042Z,8.70
2022-08-28T10:58:22.570Z,8.30
2022-08-28T11:00:55.302Z,7.30
2022-08-28T11:03:34.495Z,7.90
2022-08-28T11:06:11.498Z,9.60
2022-08-28T11:08:42.461Z,7.80
2022-08-28T11:11:14.888Z,12.53
2022-08-28T11:13:48.368Z,9.37
2022-08-28T11:16:22.661Z,8.77
2022-08-28T11:19:20.770Z,7.30
2022-08-28T11:21:51.961Z,7.27
2022-08-28T11:24:32.185Z,7.60
2022-08-28T11:27:06.808Z,7.33
2022-08-28T11:30:07.589Z,15.53
2022-08-28T11:33:20.117Z,8.90
2022-08-28T11:35:51.127Z,22.37
2022-08-28T11:39:05.008Z,7.90
2022-08-28T11:41:36.554Z,7.27
2022-08-28T11:44:28.436Z,7.33
2022-08-28T11:46:58.944Z,6.60
2022-08-28T11:49:42.310Z,6.57
2022-08-28T11:52:25.687Z,6.50
2022-08-28T11:54:57.805Z,6.90
2022-08-28T11:57:32.441Z,6.90
2022-08-28T12:00:07.896Z,6.80
2022-08-28T12:02:51.816Z,5.60
2022-08-28T12:05:54.497Z,5.90
2022-08-28T12:09:15.485Z,5.73
2022-08-28T12:12:01.007Z,6.27
2022-08-28T12:15:00.906Z,6.00
2022-08-28T12:17:53.537Z,6.77
2022-08-28T12:20:36.765Z,6.83
2022-08-28T12:23:25.090Z,6.70
2022-08-28T12:26:00.757Z,5.90
2022-08-28T12:28:31.720Z,6.27
2022-08-28T12:31:48.215Z,6.47
2022-08-28T12:34:20.246Z,6.70
2022-08-28T12:36:56.861Z,6.83
2022-08-28T12:39:25.015Z,6.20
2022-08-28T12:41:53.080Z,6.97
2022-08-28T12:44:25.579Z,6.83
2022-08-28T12:46:55.186Z,6.00
2022-08-28T12:49:32.795Z,5.90
2022-08-28T12:52:17.026Z,5.60
2022-08-28T12:54:47.016Z,5.23
2022-08-28T12:57:17.505Z,5.97
2022-08-28T12:59:47.640Z,5.30
2022-08-28T13:02:26.841Z,5.70
2022-08-28T13:04:57.551Z,4.60
2022-08-28T13:07:29.147Z,5.00
2022-08-28T13:09:59.426Z,4.73
2022-08-28T13:12:54.281Z,4.83
2022-08-28T13:15:47.014Z,4.67
2022-08-28T13:18:44.483Z,4.10
2022-08-28T13:21:15.246Z,4.73
2022-08-28T13:23:43.381Z,4.20
2022-08-28T13:26:12.243Z,4.50
2022-08-28T13:28:41.860Z,4.40
2022-08-28T13:31:23.737Z,4.40
2022-08-28T13:34:09.218Z,4.60
2022-08-28T13:36:41.943Z,4.23
2022-08-28T13:39:10.855Z,4.60
2022-08-28T13:41:39.029Z,6.10
2022-08-28T13:44:07.480Z,6.00
2022-08-28T13:46:36.186Z,6.80
2022-08-28T13:49:05.623Z,5.10
2022-08-28T13:51:35.036Z,6.50
2022-08-28T13:54:07.695Z,6.40
2022-08-28T13:56:36.908Z,5.20
2022-08-28T13:59:05.516Z,6.07
2022-08-28T14:01:47.853Z,6.30
2022-08-28T14:04:17.482Z,6.70
2022-08-28T14:06:45.543Z,6.43
2022-08-28T14:09:15.428Z,6.33
2022-08-28T14:11:46.474Z,5.50
2022-08-28T14:14:15.088Z,6.40
2022-08-28T14:16:45.079Z,6.00
2022-08-28T14:19:13.412Z,6.30
2022-08-28T14:21:42.967Z,6.17
2022-08-28T14:24:11.401Z,5.70
2022-08-28T14:26:39.895Z,5.60
2022-08-28T14:29:09.772Z,6.40
2022-08-28T14:31:40.903Z,6.00
2022-08-28T14:34:11.245Z,5.80
2022-08-28T14:36:39.267Z,6.20
2022-08-28T14:39:10.019Z,5.53
2022-08-28T14:41:38.419Z,6.07
2022-08-28T14:44:06.635Z,6.60
2022-08-28T14:46:36.693Z,5.60
2022-08-28T14:49:07.491Z,5.47
2022-08-28T14:51:37.670Z,6.00
2022-08-28T14:54:07.611Z,5.93
2022-08-28T14:56:37.112Z,6.57
2022-08-28T14:59:08.746Z,5.90
2022-08-28T15:01:41.298Z,6.10
2022-08-28T15:04:11.525Z,5.90
2022-08-28T15:06:42.525Z,6.20
2022-08-28T15:09:10.929Z,6.03
2022-08-28T15:11:45.042Z,6.27
2022-08-28T15:14:13.254Z,5.80
2022-08-28T15:16:43.766Z,5.93
2022-08-28T15:19:13.215Z,6.07
2022-08-28T15:21:43.701Z,5.50
2022-08-28T15:24:14.534Z,6.10
2022-08-28T15:26:44.957Z,6.17
2022-08-28T15:29:13.296Z,6.20
2022-08-28T15:31:43.257Z,6.50
2022-08-28T15:34:15.027Z,5.90
2022-08-28T15:36:44.535Z,6.43
2022-08-28T15:39:30.666Z,5.73
2022-08-28T15:42:01.383Z,6.70
2022-08-28T15:44:30.160Z,6.93
2022-08-28T15:47:01.013Z,6.17
2022-08-28T15:49:30.897Z,5.70
2022-08-28T15:52:00.316Z,6.13
2022-08-28T15:54:28.501Z,6.00
2022-08-28T15:56:56.514Z,5.33
2022-08-28T15:59:39.997Z,5.70
2022-08-28T16:02:14.646Z,5.05
2022-08-28T16:04:42.681Z,5.50
2022-08-28T16:07:11.137Z,5.70
2022-08-28T16:09:39.348Z,5.00
2022-08-28T16:12:07.611Z,5.47
2022-08-28T16:14:37.233Z,6.33
2022-08-28T16:17:05.858Z,6.20
2022-08-28T16:19:39.022Z,4.97
2022-08-28T16:22:07.039Z,5.17
2022-08-28T16:24:35.399Z,4.50
2022-08-28T16:27:03.541Z,4.60
2022-08-28T16:29:31.553Z,4.67
2022-08-28T16:32:00.996Z,4.80
2022-08-28T16:34:31.531Z,5.00
2022-08-28T16:36:59.813Z,5.23
2022-08-28T16:39:27.971Z,5.40
2022-08-28T16:41:56.034Z,5.20
2022-08-28T16:44:25.749Z,5.07
2022-08-28T16:46:54.480Z,4.80
2022-08-28T16:49:24.960Z,4.57
2022-08-28T16:51:53.044Z,4.70
2022-08-28T16:54:21.822Z,4.40
2022-08-28T16:56:49.943Z,4.70
2022-08-28T16:59:18.305Z,4.93
2022-08-28T17:01:46.613Z,4.87
2022-08-28T17:04:21.374Z,4.30
2022-08-28T17:06:50.792Z,5.10
2022-08-28T17:09:21.000Z,4.70
2022-08-28T17:11:51.652Z,4.67
2022-08-28T17:14:20.910Z,4.50
2022-08-28T17:16:49.498Z,4.90
2022-08-28T17:19:17.712Z,4.63
2022-08-28T17:22:03.765Z,4.67
2022-08-28T17:24:33.122Z,5.00
2022-08-28T17:27:05.368Z,5.67
2022-08-28T17:29:33.886Z,5.13
2022-08-28T17:32:02.340Z,4.97
2022-08-28T17:34:30.788Z,4.40
2022-08-28T17:37:01.247Z,4.90
2022-08-28T17:39:29.497Z,4.60
2022-08-28T17:41:59.018Z,5.30
2022-08-28T17:44:27.107Z,5.50
2022-08-28T17:46:55.249Z,6.00
2022-08-28T17:49:23.589Z,5.40
2022-08-28T17:51:52.067Z,6.10
2022-08-28T17:54:22.611Z,5.47
2022-08-28T17:56:50.771Z,6.47
2022-08-28T17:59:21.153Z,6.37
2022-08-28T18:01:50.001Z,6.83
2022-08-28T18:04:24.196Z,5.63
2022-08-28T18:06:54.601Z,5.90
2022-08-28T18:09:23.515Z,6.30
2022-08-28T18:11:52.080Z,6.57
2022-08-28T18:14:22.008Z,6.10
2022-08-28T18:16:50.146Z,6.80
2022-08-28T18:19:18.478Z,5.80
2022-08-28T18:21:46.758Z,6.60
2022-08-28T18:24:14.774Z,6.10
2022-08-28T18:26:43.917Z,6.10
2022-08-28T18:29:12.307Z,6.70
2022-08-28T18:31:41.958Z,6.70
2022-08-28T18:34:10.987Z,6.70
2022-08-28T18:36:41.504Z,6.87
2022-08-28T18:39:10.130Z,6.60
2022-08-28T18:41:43.754Z,6.83
2022-08-28T18:44:13.760Z,6.53
2022-08-28T18:46:43.906Z,6.77
2022-08-28T18:49:12.604Z,7.20
2022-08-28T18:51:41.791Z,6.60
2022-08-28T18:54:10.034Z,6.50
2022-08-28T18:56:40.920Z,6.80
2022-08-28T18:59:10.219Z,7.30
2022-08-28T19:01:38.517Z,6.90
2022-08-28T19:04:08.214Z,6.60
2022-08-28T19:06:36.714Z,6.67
2022-08-28T19:09:06.453Z,6.67
2022-08-28T19:11:35.903Z,6.47
2022-08-28T19:14:04.758Z,7.20
2022-08-28T19:16:35.218Z,7.30
2022-08-28T19:19:03.491Z,7.10
2022-08-28T19:21:33.876Z,7.10
2022-08-28T19:24:01.897Z,7.83
2022-08-28T19:26:30.086Z,6.60
2022-08-28T19:28:58.614Z,7.63
2022-08-28T19:31:27.216Z,6.90
2022-08-28T19:33:57.262Z,6.77
2022-08-28T19:36:27.167Z,7.20
2022-08-28T19:38:56.604Z,7.80
2022-08-28T19:41:25.055Z,7.70
2022-08-28T19:43:53.179Z,7.50
2022-08-28T19:46:21.318Z,6.90
2022-08-28T19:48:49.800Z,7.00
2022-08-28T19:51:22.518Z,6.73
2022-08-28T19:53:57.402Z,6.50
2022-08-28T19:56:28.348Z,7.83
2022-08-28T19:58:58.473Z,7.07
2022-08-28T20:01:29.470Z,7.93
2022-08-28T20:03:59.196Z,7.33
2022-08-28T20:06:27.376Z,6.97
2022-08-28T20:08:55.490Z,7.27
2022-08-28T20:11:30.133Z,7.67
2022-08-28T20:14:04.100Z,7.50
2022-08-28T20:16:35.227Z,7.10
2022-08-28T20:19:04.041Z,7.03
2022-08-28T20:21:37.618Z,7.63
2022-08-28T20:24:07.350Z,7.37
2022-08-28T20:26:35.792Z,7.57
2022-08-28T20:29:06.773Z,7.77
2022-08-28T20:31:35.214Z,7.60
2022-08-28T20:34:03.449Z,7.40
2022-08-28T20:36:31.708Z,7.70
2022-08-28T20:39:00.051Z,7.37
2022-08-28T20:41:28.454Z,7.60
2022-08-28T20:43:56.684Z,7.50
2022-08-28T20:46:26.242Z,7.70
2022-08-28T20:48:54.252Z,7.23
2022-08-28T20:51:42.423Z,7.87
2022-08-28T20:54:10.438Z,6.90
2022-08-28T20:56:38.689Z,7.43
2022-08-28T20:59:06.745Z,7.37
2022-08-28T21:01:36.285Z,7.73
2022-08-28T21:04:04.938Z,8.20
2022-08-28T21:06:32.975Z,7.43
2022-08-28T21:09:01.117Z,7.20
2022-08-28T21:11:29.867Z,7.07
2022-08-28T21:13:57.944Z,7.70
2022-08-28T21:16:26.651Z,7.37
2022-08-28T21:19:14.579Z,7.60
2022-08-28T21:21:44.093Z,7.67
2022-08-28T21:24:14.630Z,7.80
2022-08-28T21:26:43.281Z,7.77
2022-08-28T21:29:12.271Z,8.10
2022-08-28T21:31:41.567Z,8.80
2022-08-28T21:34:11.516Z,8.00
2022-08-28T21:36:39.913Z,7.50
2022-08-28T21:39:07.896Z,8.10
2022-08-28T21:41:36.052Z,7.70
2022-08-28T21:44:04.802Z,8.60
2022-08-28T21:46:32.987Z,7.63
2022-08-28T21:49:01.344Z,7.87
2022-08-28T21:51:30.876Z,8.40
2022-08-28T21:53:58.928Z,8.20
2022-08-28T21:56:28.890Z,8.17
2022-08-28T21:58:57.690Z,7.90
2022-08-28T22:01:26.568Z,7.57
2022-08-28T22:03:55.547Z,8.30
2022-08-28T22:06:25.288Z,7.87
2022-08-28T22:08:55.856Z,7.70
2022-08-28T22:11:25.218Z,8.50
2022-08-28T22:13:53.583Z,8.40
2022-08-28T22:16:21.957Z,8.53
2022-08-28T22:18:50.125Z,8.87
2022-08-28T22:21:38.493Z,7.77
2022-08-28T22:24:08.837Z,7.93
2022-08-28T22:26:37.097Z,7.73
2022-08-28T22:29:05.914Z,8.17
2022-08-28T22:31:35.068Z,7.80
2022-08-28T22:34:06.031Z,7.77
2022-08-28T22:36:34.261Z,8.10
2022-08-28T22:39:02.240Z,7.90
2022-08-28T22:41:32.452Z,7.90
2022-08-28T22:44:00.455Z,7.07
2022-08-28T22:46:28.550Z,8.10
2022-08-28T22:48:56.699Z,8.13
2022-08-28T22:51:25.126Z,7.27
2022-08-28T22:53:53.165Z,8.47
2022-08-28T22:56:21.672Z,8.00
2022-08-28T22:58:51.119Z,8.07
2022-08-28T23:01:21.680Z,8.40
2022-08-28T23:03:50.410Z,8.90
2022-08-28T23:06:20.377Z,7.30
2022-08-28T23:08:48.723Z,7.83
2022-08-28T23:11:17.004Z,8.83
2022-08-28T23:13:45.103Z,8.67
2022-08-28T23:16:16.584Z,8.73
2022-08-28T23:19:06.596Z,7.90
2022-08-28T23:21:32.921Z,8.03
2022-08-28T23:24:00.987Z,8.10
2022-08-28T23:26:29.487Z,7.50
2022-08-28T23:28:57.500Z,7.90
2022-08-28T23:31:26.973Z,7.77
2022-08-28T23:33:55.148Z,8.30
2022-08-28T23:36:23.562Z,7.50
2022-08-28T23:38:51.978Z,7.00
2022-08-28T23:41:20.405Z,7.13
2022-08-28T23:43:48.744Z,7.30
2022-08-28T23:46:17.145Z,7.93
2022-08-28T23:48:50.089Z,7.67
2022-08-28T23:51:18.373Z,7.80
2022-08-28T23:53:46.370Z,7.67
2022-08-28T23:56:15.829Z,7.20
2022-08-28T23:58:44.389Z,7.53
